Terminal Aerodrome Forecast
Issued by NWS

Home | Current Version | Previous Version | Text Only | Print | Product List | Glossary On
Versions: 1 2 3 4 5 6 7 8 9 10 11 12 13 14 15 16 17 18 19 20 21 22 23 24 25 26 27 28 29
000
FTUS41 KCTP 070535
TAFBFD
TAF
KBFD 070535Z 0706/0806 16008G16KT 3SM BR VCSH OVC004
     FM070800 26008KT 4SM -SN BR OVC004
     FM071300 27010G20KT P6SM BKN009 OVC015
     FM071600 26008G15KT P6SM BKN035
     FM072300 25007KT P6SM SCT030=

USA.gov is the U.S. government's official web portal to all federal, state and local government web resources and services.